createdAt,value
2018-10-03T00:00:11.754Z,99.90
2018-10-03T00:02:41.361Z,99.90
2018-10-03T00:05:10.927Z,99.90
2018-10-03T00:07:40.629Z,99.90
2018-10-03T00:10:10.125Z,99.90
2018-10-03T00:12:40.065Z,99.90
2018-10-03T00:15:09.719Z,99.90
2018-10-03T00:17:39.370Z,99.90
2018-10-03T00:20:09.109Z,99.90
2018-10-03T00:22:38.813Z,99.90
2018-10-03T00:25:08.443Z,99.90
2018-10-03T00:27:38.050Z,99.90
2018-10-03T00:30:07.657Z,99.90
2018-10-03T00:32:37.859Z,99.90
2018-10-03T00:35:07.588Z,99.90
2018-10-03T00:37:37.192Z,99.90
2018-10-03T00:40:06.989Z,99.90
2018-10-03T00:42:36.897Z,99.90
2018-10-03T00:45:07.048Z,99.90
2018-10-03T00:47:36.970Z,99.90
2018-10-03T00:50:06.712Z,99.90
2018-10-03T00:52:37.719Z,99.90
2018-10-03T00:55:08.541Z,99.90
2018-10-03T00:57:38.660Z,99.90
2018-10-03T01:00:08.512Z,99.90
2018-10-03T01:02:38.145Z,99.90
2018-10-03T01:05:08.118Z,99.90
2018-10-03T01:07:37.639Z,99.90
2018-10-03T01:10:07.420Z,99.90
2018-10-03T01:12:37.089Z,99.90
2018-10-03T01:15:07.106Z,99.90
2018-10-03T01:17:36.757Z,99.90
2018-10-03T01:20:06.868Z,99.90
2018-10-03T01:22:36.458Z,99.90
2018-10-03T01:25:06.239Z,99.90
2018-10-03T01:27:35.872Z,99.90
2018-10-03T01:30:06.401Z,99.90
2018-10-03T01:32:36.103Z,99.90
2018-10-03T01:35:05.803Z,99.90
2018-10-03T01:37:35.615Z,99.90
2018-10-03T01:40:05.469Z,99.90
2018-10-03T01:42:35.095Z,99.90
2018-10-03T01:45:04.789Z,99.90
2018-10-03T01:47:35.204Z,99.90
2018-10-03T01:50:05.413Z,99.90
2018-10-03T01:52:35.066Z,99.90
2018-10-03T01:55:04.728Z,99.90
2018-10-03T01:57:34.487Z,99.90
2018-10-03T02:00:04.794Z,99.90
2018-10-03T02:02:34.361Z,99.90
2018-10-03T02:05:04.008Z,99.90
2018-10-03T02:07:33.590Z,99.90
2018-10-03T02:10:03.339Z,99.90
2018-10-03T02:12:32.922Z,99.90
2018-10-03T02:15:02.474Z,99.90
2018-10-03T02:17:32.048Z,99.90
2018-10-03T02:20:01.735Z,99.90
2018-10-03T02:22:31.542Z,99.90
2018-10-03T02:25:01.262Z,99.90
2018-10-03T02:27:31.017Z,99.90
2018-10-03T02:30:00.777Z,99.90
2018-10-03T02:32:30.625Z,99.90
2018-10-03T02:35:00.324Z,99.90
2018-10-03T02:37:29.946Z,99.90
2018-10-03T02:40:00.340Z,99.90
2018-10-03T02:42:30.069Z,99.90
2018-10-03T02:44:59.730Z,99.90
2018-10-03T02:47:29.475Z,99.90
2018-10-03T02:49:59.263Z,99.90
2018-10-03T02:52:28.795Z,99.90
2018-10-03T02:54:58.700Z,99.90
2018-10-03T02:57:28.304Z,99.90
2018-10-03T02:59:57.911Z,99.90
2018-10-03T03:02:27.630Z,99.90
2018-10-03T03:04:57.368Z,99.90
2018-10-03T03:07:27.147Z,99.90
2018-10-03T03:09:56.877Z,99.90
2018-10-03T03:12:26.556Z,99.90
2018-10-03T03:14:56.128Z,99.90
2018-10-03T03:17:25.818Z,99.90
2018-10-03T03:19:56.133Z,99.90
2018-10-03T03:22:25.943Z,99.90
2018-10-03T03:24:55.645Z,99.90
2018-10-03T03:27:25.573Z,99.90
2018-10-03T03:29:55.155Z,99.90
2018-10-03T03:32:25.102Z,99.90
2018-10-03T03:34:54.663Z,99.90
2018-10-03T03:37:31.433Z,99.90
2018-10-03T03:40:01.172Z,99.90
2018-10-03T03:42:30.862Z,99.90
2018-10-03T03:45:00.671Z,99.90
2018-10-03T03:47:30.825Z,99.90
2018-10-03T03:50:00.757Z,99.90
2018-10-03T03:52:30.260Z,99.90
2018-10-03T03:55:00.182Z,99.90
2018-10-03T03:57:29.737Z,99.90
2018-10-03T03:59:59.397Z,99.90
2018-10-03T04:02:29.085Z,99.90
2018-10-03T04:04:58.910Z,99.90
2018-10-03T04:07:28.582Z,99.90
2018-10-03T04:09:58.408Z,99.90
2018-10-03T04:12:27.923Z,99.90
2018-10-03T04:14:57.597Z,99.90
2018-10-03T04:17:27.094Z,99.90
2018-10-03T04:19:56.699Z,99.90
2018-10-03T04:22:26.381Z,99.90
2018-10-03T04:24:56.032Z,99.90
2018-10-03T04:27:25.661Z,99.90
2018-10-03T04:29:55.143Z,99.90
2018-10-03T04:32:24.644Z,99.90
2018-10-03T04:34:54.186Z,99.90
2018-10-03T04:37:23.969Z,99.90
2018-10-03T04:39:53.578Z,99.90
2018-10-03T04:42:23.425Z,99.90
2018-10-03T04:44:52.892Z,99.90
2018-10-03T04:47:22.610Z,99.90
2018-10-03T04:49:52.313Z,99.90
2018-10-03T04:52:21.810Z,99.90
2018-10-03T04:54:51.359Z,99.90
2018-10-03T04:57:20.878Z,99.90
2018-10-03T04:59:50.473Z,99.90
2018-10-03T05:02:20.112Z,99.90
2018-10-03T05:04:49.742Z,99.90
2018-10-03T05:07:19.395Z,99.90
2018-10-03T05:09:48.886Z,99.90
2018-10-03T05:12:18.522Z,99.90
2018-10-03T05:14:48.014Z,99.90
2018-10-03T05:17:17.490Z,99.90
2018-10-03T05:19:47.126Z,99.90
2018-10-03T05:22:16.638Z,99.90
2018-10-03T05:24:46.513Z,99.90
2018-10-03T05:27:16.015Z,99.90
2018-10-03T05:29:45.726Z,99.90
2018-10-03T05:32:15.397Z,99.90
2018-10-03T05:34:45.061Z,99.90
2018-10-03T05:37:15.843Z,99.90
2018-10-03T05:39:45.597Z,99.90
2018-10-03T05:42:15.218Z,99.90
2018-10-03T05:44:44.956Z,99.90
2018-10-03T05:47:14.554Z,99.90
2018-10-03T05:49:44.235Z,99.90
2018-10-03T05:52:13.872Z,99.90
2018-10-03T05:54:43.536Z,99.90
2018-10-03T05:57:13.250Z,99.90
2018-10-03T05:59:42.903Z,99.90
2018-10-03T06:02:12.581Z,99.90
2018-10-03T06:04:42.204Z,99.90
2018-10-03T06:07:11.932Z,99.90
2018-10-03T06:09:41.517Z,99.90
2018-10-03T06:12:11.304Z,99.90
2018-10-03T06:14:41.141Z,99.90
2018-10-03T06:17:10.655Z,99.90
2018-10-03T06:19:40.281Z,99.90
2018-10-03T06:22:09.925Z,99.90
2018-10-03T06:24:39.422Z,99.90
2018-10-03T06:27:09.094Z,99.90
2018-10-03T06:29:38.819Z,99.90
2018-10-03T06:32:08.509Z,99.90
2018-10-03T06:34:38.148Z,99.90
2018-10-03T06:37:08.565Z,99.90
2018-10-03T06:39:38.268Z,99.90
2018-10-03T06:42:07.798Z,99.90
2018-10-03T06:44:37.426Z,99.90
2018-10-03T06:47:07.206Z,99.90
2018-10-03T06:49:36.881Z,99.90
2018-10-03T06:52:06.609Z,99.90
2018-10-03T06:54:36.352Z,99.90
2018-10-03T06:57:06.150Z,99.90
2018-10-03T06:59:35.625Z,99.90
2018-10-03T07:02:05.345Z,99.90
2018-10-03T07:04:35.047Z,99.90
2018-10-03T07:07:04.789Z,99.90
2018-10-03T07:09:34.450Z,99.90
2018-10-03T07:12:04.178Z,99.90
2018-10-03T07:14:34.663Z,99.90
2018-10-03T07:17:04.297Z,99.90
2018-10-03T07:19:34.244Z,99.90
2018-10-03T07:22:04.094Z,99.90
2018-10-03T07:24:34.169Z,99.90
2018-10-03T07:27:04.107Z,99.90
2018-10-03T07:29:33.884Z,99.90
2018-10-03T07:32:03.616Z,98.30
2018-10-03T07:34:33.282Z,95.10
2018-10-03T07:37:03.056Z,94.60
2018-10-03T07:39:32.740Z,91.20
2018-10-03T07:42:02.560Z,90.00
2018-10-03T07:44:32.163Z,91.30
2018-10-03T07:47:01.889Z,91.50
2018-10-03T07:49:31.544Z,84.60
2018-10-03T07:52:01.375Z,76.70
2018-10-03T07:54:31.241Z,76.40
2018-10-03T07:57:00.910Z,71.30
2018-10-03T07:59:30.505Z,66.60
2018-10-03T08:02:00.373Z,66.10
2018-10-03T08:04:30.039Z,72.10
2018-10-03T08:07:00.017Z,73.80
2018-10-03T08:09:29.765Z,73.50
2018-10-03T08:11:59.483Z,77.30
2018-10-03T08:14:29.056Z,80.50
2018-10-03T08:16:58.775Z,86.40
2018-10-03T08:19:28.557Z,89.40
2018-10-03T08:21:58.227Z,94.10
2018-10-03T08:24:27.939Z,96.30
2018-10-03T08:26:57.458Z,96.10
2018-10-03T08:29:27.162Z,94.80
2018-10-03T08:31:56.961Z,96.00
2018-10-03T08:34:26.592Z,96.90
2018-10-03T08:36:56.311Z,97.20
2018-10-03T08:39:26.004Z,96.40
2018-10-03T08:41:55.669Z,97.40
2018-10-03T08:44:26.172Z,97.20
2018-10-03T08:46:55.842Z,98.30
2018-10-03T08:49:25.558Z,97.90
2018-10-03T08:51:55.423Z,97.80
2018-10-03T08:54:25.591Z,99.50
2018-10-03T08:56:55.322Z,98.10
2018-10-03T08:59:25.056Z,98.20
2018-10-03T09:01:54.678Z,96.50
2018-10-03T09:04:24.590Z,91.60
2018-10-03T09:06:54.286Z,88.40
2018-10-03T09:09:24.038Z,76.90
2018-10-03T09:11:53.824Z,67.90
2018-10-03T09:14:23.646Z,57.30
2018-10-03T09:16:53.462Z,53.80
2018-10-03T09:19:23.405Z,54.40
2018-10-03T09:21:53.470Z,57.50
2018-10-03T09:24:23.287Z,61.10
2018-10-03T09:26:53.474Z,69.10
2018-10-03T09:29:23.541Z,74.00
2018-10-03T09:31:53.112Z,74.40
2018-10-03T09:34:22.697Z,78.90
2018-10-03T09:36:52.372Z,84.90
2018-10-03T09:39:22.030Z,88.20
2018-10-03T09:41:51.822Z,90.20
2018-10-03T09:44:21.802Z,91.50
2018-10-03T09:46:51.409Z,92.30
2018-10-03T09:49:21.049Z,93.00
2018-10-03T09:51:50.809Z,93.10
2018-10-03T09:54:20.885Z,92.80
2018-10-03T09:56:50.638Z,93.90
2018-10-03T09:59:20.378Z,89.70
2018-10-03T10:01:50.713Z,91.90
2018-10-03T10:04:20.414Z,85.30
2018-10-03T10:06:50.123Z,75.20
2018-10-03T10:09:19.854Z,71.10
2018-10-03T10:11:49.669Z,64.20
2018-10-03T10:14:19.547Z,64.70
2018-10-03T10:16:49.228Z,58.60
2018-10-03T10:19:18.924Z,58.00
2018-10-03T10:21:48.734Z,58.00
2018-10-03T10:24:18.860Z,56.90
2018-10-03T10:26:49.018Z,52.10
2018-10-03T10:29:19.612Z,53.80
2018-10-03T10:31:49.888Z,54.10
2018-10-03T10:34:19.553Z,51.50
2018-10-03T10:36:49.239Z,54.00
2018-10-03T10:39:18.858Z,55.20
2018-10-03T10:41:48.734Z,56.30
2018-10-03T10:44:18.519Z,59.50
2018-10-03T10:46:48.194Z,60.40
2018-10-03T10:49:17.745Z,60.60
2018-10-03T10:51:47.390Z,60.40
2018-10-03T10:54:16.914Z,58.00
2018-10-03T10:56:46.623Z,54.30
2018-10-03T10:59:16.623Z,54.10
2018-10-03T11:01:46.309Z,53.80
2018-10-03T11:04:17.345Z,52.80
2018-10-03T11:06:47.242Z,52.80
2018-10-03T11:09:16.871Z,50.00
2018-10-03T11:11:46.457Z,49.00
2018-10-03T11:14:16.332Z,49.20
2018-10-03T11:16:46.164Z,48.90
2018-10-03T11:19:16.463Z,49.50
2018-10-03T11:21:46.157Z,50.80
2018-10-03T11:24:16.302Z,50.20
2018-10-03T11:26:45.863Z,51.20
2018-10-03T11:29:16.024Z,48.50
2018-10-03T11:31:45.931Z,48.90
2018-10-03T11:34:15.946Z,48.40
2018-10-03T11:36:45.642Z,47.80
2018-10-03T11:39:15.520Z,44.50
2018-10-03T11:41:45.213Z,44.80
2018-10-03T11:44:14.878Z,45.90
2018-10-03T11:46:44.469Z,48.20
2018-10-03T11:49:14.141Z,47.40
2018-10-03T11:51:44.256Z,47.80
2018-10-03T11:54:13.842Z,48.80
2018-10-03T11:56:43.682Z,49.20
2018-10-03T11:59:13.282Z,48.60
2018-10-03T12:01:42.898Z,50.30
2018-10-03T12:04:12.520Z,52.20
2018-10-03T12:06:42.252Z,53.30
2018-10-03T12:09:13.163Z,55.10
2018-10-03T12:11:49.574Z,57.40
2018-10-03T12:14:19.408Z,59.60
2018-10-03T12:16:49.237Z,58.70
2018-10-03T12:19:19.375Z,60.10
2018-10-03T12:21:49.171Z,58.00
2018-10-03T12:24:19.045Z,57.80
2018-10-03T12:26:48.753Z,58.40
2018-10-03T12:29:18.395Z,58.20
2018-10-03T12:31:48.262Z,57.40
2018-10-03T12:34:17.980Z,56.40
2018-10-03T12:36:47.863Z,55.20
2018-10-03T12:39:17.624Z,54.20
2018-10-03T12:41:47.650Z,53.30
2018-10-03T12:44:17.457Z,53.30
2018-10-03T12:46:47.394Z,51.60
2018-10-03T12:49:17.218Z,52.00
2018-10-03T12:51:46.884Z,51.50
2018-10-03T12:54:16.620Z,51.80
2018-10-03T12:56:46.232Z,53.60
2018-10-03T12:59:15.799Z,53.90
2018-10-03T13:01:45.553Z,53.80
2018-10-03T13:04:15.089Z,55.10
2018-10-03T13:06:44.678Z,55.50
2018-10-03T13:09:15.256Z,56.90
2018-10-03T13:11:45.087Z,56.10
2018-10-03T13:14:15.161Z,55.20
2018-10-03T13:16:44.807Z,57.50
2018-10-03T13:19:14.709Z,56.20
2018-10-03T13:21:44.337Z,58.20
2018-10-03T13:24:14.067Z,57.20
2018-10-03T13:26:43.757Z,57.20
2018-10-03T13:29:13.297Z,57.30
2018-10-03T13:31:42.986Z,56.80
2018-10-03T13:34:12.552Z,55.50
2018-10-03T13:36:42.308Z,57.00
2018-10-03T13:39:12.097Z,56.80
2018-10-03T13:41:41.716Z,55.50
2018-10-03T13:44:11.376Z,54.50
2018-10-03T13:46:41.054Z,54.90
2018-10-03T13:49:10.907Z,54.70
2018-10-03T13:51:41.380Z,53.70
2018-10-03T13:54:11.057Z,54.40
2018-10-03T13:56:40.728Z,55.50
2018-10-03T13:59:10.507Z,54.30
2018-10-03T14:01:40.336Z,55.20
2018-10-03T14:04:10.179Z,54.10
2018-10-03T14:06:39.819Z,55.60
2018-10-03T14:09:10.987Z,54.80
2018-10-03T14:11:41.014Z,54.80
2018-10-03T14:14:10.821Z,55.00
2018-10-03T14:16:40.620Z,55.70
2018-10-03T14:19:10.747Z,55.40
2018-10-03T14:21:40.575Z,57.00
2018-10-03T14:24:10.611Z,56.80
2018-10-03T14:26:40.217Z,58.10
2018-10-03T14:29:10.177Z,58.70
2018-10-03T14:31:39.882Z,58.80
2018-10-03T14:34:09.866Z,58.60
2018-10-03T14:36:39.741Z,60.00
2018-10-03T14:39:10.082Z,60.20
2018-10-03T14:41:40.012Z,60.00
2018-10-03T14:44:09.766Z,59.20
2018-10-03T14:46:39.914Z,59.40
2018-10-03T14:49:09.591Z,60.00
2018-10-03T14:51:39.336Z,60.50
2018-10-03T14:54:09.258Z,60.80
2018-10-03T14:56:39.624Z,60.00
2018-10-03T14:59:09.334Z,60.70
2018-10-03T15:01:38.885Z,60.80
2018-10-03T15:04:09.111Z,60.20
2018-10-03T15:06:38.977Z,61.70
2018-10-03T15:09:10.210Z,60.90
2018-10-03T15:11:40.916Z,61.80
2018-10-03T15:14:10.718Z,62.20
2018-10-03T15:16:40.527Z,60.80
2018-10-03T15:19:10.218Z,61.50
2018-10-03T15:21:39.996Z,62.40
2018-10-03T15:24:09.907Z,61.60
2018-10-03T15:26:39.620Z,62.90
2018-10-03T15:29:09.503Z,63.40
2018-10-03T15:31:39.976Z,61.70
2018-10-03T15:34:09.633Z,63.30
2018-10-03T15:36:39.383Z,62.60
2018-10-03T15:39:10.701Z,64.20
2018-10-03T15:41:40.369Z,67.30
2018-10-03T15:44:10.249Z,64.00
2018-10-03T15:46:40.081Z,64.40
2018-10-03T15:49:09.822Z,66.20
2018-10-03T15:51:39.758Z,71.70
2018-10-03T15:54:09.392Z,71.90
2018-10-03T15:56:39.831Z,74.20
2018-10-03T15:59:09.631Z,75.10
2018-10-03T16:01:39.802Z,78.10
2018-10-03T16:04:09.953Z,81.70
2018-10-03T16:06:39.959Z,84.20
2018-10-03T16:09:10.517Z,87.00
2018-10-03T16:11:41.227Z,88.10
2018-10-03T16:14:11.489Z,90.60
2018-10-03T16:16:41.502Z,92.20
2018-10-03T16:19:11.668Z,93.80
2018-10-03T16:21:41.840Z,95.20
2018-10-03T16:24:11.375Z,95.60
2018-10-03T16:26:41.561Z,96.40
2018-10-03T16:29:11.229Z,97.70
2018-10-03T16:31:41.132Z,98.30
2018-10-03T16:34:10.865Z,98.10
2018-10-03T16:36:40.859Z,98.70
2018-10-03T16:39:11.557Z,99.60
2018-10-03T16:41:41.219Z,99.90
2018-10-03T16:44:11.068Z,99.90
2018-10-03T16:46:40.833Z,99.90
2018-10-03T16:49:10.631Z,99.90
2018-10-03T16:51:40.310Z,99.90
2018-10-03T16:54:10.059Z,99.90
2018-10-03T16:56:39.617Z,99.90
2018-10-03T16:59:09.443Z,99.90
2018-10-03T17:01:39.638Z,99.90
2018-10-03T17:04:09.271Z,99.90
2018-10-03T17:06:39.124Z,99.90
2018-10-03T17:09:08.988Z,99.90
2018-10-03T17:11:38.769Z,99.90
2018-10-03T17:14:32.781Z,99.90
2018-10-03T17:17:02.450Z,99.90
2018-10-03T17:19:32.173Z,99.90
2018-10-03T17:22:02.189Z,99.90
2018-10-03T17:24:33.129Z,99.90
2018-10-03T17:27:02.761Z,99.90
2018-10-03T17:29:32.485Z,99.90
2018-10-03T17:32:02.389Z,99.90
2018-10-03T17:34:32.425Z,99.90
2018-10-03T17:37:02.286Z,99.90
2018-10-03T17:39:31.996Z,99.90
2018-10-03T17:42:01.758Z,99.90
2018-10-03T17:44:31.524Z,99.90
2018-10-03T17:47:01.117Z,99.90
2018-10-03T17:49:30.887Z,99.90
2018-10-03T17:52:00.556Z,99.90
2018-10-03T17:54:30.169Z,99.90
2018-10-03T17:56:59.808Z,99.90
2018-10-03T17:59:29.413Z,99.90
2018-10-03T18:02:01.426Z,99.90
2018-10-03T18:04:31.157Z,99.90
2018-10-03T18:07:00.859Z,99.90
2018-10-03T18:09:30.449Z,99.90
2018-10-03T18:12:00.059Z,99.90
2018-10-03T18:14:30.749Z,99.90
2018-10-03T18:17:00.524Z,99.90
2018-10-03T18:19:30.234Z,99.90
2018-10-03T18:22:00.466Z,99.90
2018-10-03T18:24:30.204Z,99.90
2018-10-03T18:26:59.824Z,99.90
2018-10-03T18:29:29.612Z,99.90
2018-10-03T18:31:59.375Z,99.90
2018-10-03T18:34:29.380Z,99.90
2018-10-03T18:36:59.297Z,99.90
2018-10-03T18:39:29.530Z,99.90
2018-10-03T18:41:59.768Z,99.90
2018-10-03T18:44:29.780Z,99.90
2018-10-03T18:47:02.913Z,99.90
2018-10-03T18:49:32.983Z,99.90
2018-10-03T18:52:03.068Z,99.90
2018-10-03T18:54:33.080Z,99.90
2018-10-03T18:57:03.114Z,99.90
2018-10-03T18:59:33.250Z,99.90
2018-10-03T19:02:03.214Z,99.90
2018-10-03T19:04:33.273Z,99.90
2018-10-03T19:07:03.430Z,99.90
2018-10-03T19:09:33.500Z,99.90
2018-10-03T19:12:03.767Z,99.90
2018-10-03T19:14:33.972Z,99.90
2018-10-03T19:17:04.688Z,99.90
2018-10-03T19:19:34.624Z,99.90
2018-10-03T19:22:04.839Z,99.90
2018-10-03T19:24:35.053Z,99.90
2018-10-03T19:27:05.174Z,99.90
2018-10-03T19:29:35.284Z,99.90
2018-10-03T19:32:05.392Z,99.90
2018-10-03T19:34:35.417Z,99.90
2018-10-03T19:37:05.478Z,99.90
2018-10-03T19:39:35.511Z,99.90
2018-10-03T19:42:05.363Z,99.90
2018-10-03T19:44:35.365Z,99.90
2018-10-03T19:47:05.815Z,99.90
2018-10-03T19:49:35.560Z,99.90
2018-10-03T19:52:05.171Z,99.90
2018-10-03T19:54:35.477Z,99.90
2018-10-03T19:57:05.344Z,99.90
2018-10-03T19:59:35.100Z,99.90
2018-10-03T20:02:05.568Z,99.90
2018-10-03T20:04:36.065Z,99.90
2018-10-03T20:07:05.914Z,99.90
2018-10-03T20:09:35.472Z,99.90
2018-10-03T20:12:05.178Z,99.90
2018-10-03T20:14:34.805Z,99.90
2018-10-03T20:17:04.549Z,99.90
2018-10-03T20:19:34.414Z,99.90
2018-10-03T20:22:03.958Z,99.90
2018-10-03T20:24:33.661Z,99.90
2018-10-03T20:27:03.330Z,99.90
2018-10-03T20:29:33.226Z,99.90
2018-10-03T20:32:02.905Z,99.90
2018-10-03T20:34:32.604Z,99.90
2018-10-03T20:37:02.716Z,99.90
2018-10-03T20:39:32.516Z,99.90
2018-10-03T20:42:02.551Z,99.90
2018-10-03T20:44:32.337Z,99.90
2018-10-03T20:47:02.252Z,99.90
2018-10-03T20:49:31.990Z,99.90
2018-10-03T20:52:02.314Z,99.90
2018-10-03T20:54:32.119Z,99.90
2018-10-03T20:57:01.886Z,99.90
2018-10-03T20:59:31.519Z,99.90
2018-10-03T21:02:01.204Z,99.90
2018-10-03T21:04:30.850Z,99.90
2018-10-03T21:07:00.346Z,99.90
2018-10-03T21:09:29.982Z,99.90
2018-10-03T21:11:59.513Z,99.90
2018-10-03T21:14:29.532Z,99.90
2018-10-03T21:16:59.108Z,99.90
2018-10-03T21:19:28.820Z,99.90
2018-10-03T21:21:58.586Z,99.90
2018-10-03T21:24:28.359Z,99.90
2018-10-03T21:26:58.166Z,99.90
2018-10-03T21:29:27.952Z,99.90
2018-10-03T21:31:57.662Z,99.90
2018-10-03T21:34:27.391Z,99.90
2018-10-03T21:36:57.176Z,99.90
2018-10-03T21:39:26.927Z,99.90
2018-10-03T21:41:56.631Z,99.90
2018-10-03T21:44:26.335Z,99.90
2018-10-03T21:46:56.023Z,99.90
2018-10-03T21:49:25.651Z,99.90
2018-10-03T21:51:55.335Z,99.90
2018-10-03T21:54:25.072Z,99.90
2018-10-03T21:56:54.592Z,99.90
2018-10-03T21:59:24.291Z,99.90
2018-10-03T22:01:53.938Z,99.90
2018-10-03T22:04:23.603Z,99.90
2018-10-03T22:06:53.597Z,99.90
2018-10-03T22:09:23.339Z,99.90
2018-10-03T22:11:53.014Z,99.90
2018-10-03T22:14:22.610Z,99.90
2018-10-03T22:16:52.233Z,99.90
2018-10-03T22:19:21.704Z,99.90
2018-10-03T22:21:51.504Z,99.90
2018-10-03T22:24:20.999Z,99.90
2018-10-03T22:26:51.475Z,99.90
2018-10-03T22:29:21.189Z,99.90
2018-10-03T22:31:50.899Z,99.90
2018-10-03T22:34:20.512Z,99.90
2018-10-03T22:36:50.113Z,99.90
2018-10-03T22:39:19.733Z,99.90
2018-10-03T22:41:49.323Z,99.90
2018-10-03T22:44:18.913Z,99.90
2018-10-03T22:46:48.643Z,99.90
2018-10-03T22:49:18.307Z,99.90
2018-10-03T22:51:47.884Z,99.90
2018-10-03T22:54:18.165Z,99.90
2018-10-03T22:56:47.797Z,99.90
2018-10-03T22:59:17.304Z,99.90
2018-10-03T23:01:47.077Z,99.90
2018-10-03T23:04:16.693Z,99.90
2018-10-03T23:06:46.560Z,99.90
2018-10-03T23:09:16.344Z,99.90
2018-10-03T23:11:46.049Z,99.90
2018-10-03T23:14:15.838Z,99.90
2018-10-03T23:16:45.457Z,99.90
2018-10-03T23:19:15.232Z,99.90
2018-10-03T23:21:44.891Z,99.90
2018-10-03T23:24:14.811Z,99.90
2018-10-03T23:26:44.406Z,99.90
2018-10-03T23:29:14.227Z,99.90
2018-10-03T23:31:43.846Z,99.90
2018-10-03T23:34:13.539Z,99.90
2018-10-03T23:36:43.136Z,99.90
2018-10-03T23:39:13.186Z,99.90
2018-10-03T23:41:42.779Z,99.90
2018-10-03T23:44:12.260Z,99.90
2018-10-03T23:46:41.877Z,99.90
2018-10-03T23:49:11.393Z,99.90
2018-10-03T23:51:41.101Z,99.90
2018-10-03T23:54:10.799Z,99.90
2018-10-03T23:56:40.434Z,99.90
2018-10-03T23:59:10.479Z,99.90
